createdAt,value
2019-03-03T00:00:04.373Z,9.83
2019-03-03T00:02:36.549Z,9.25
2019-03-03T00:05:09.229Z,9.60
2019-03-03T00:07:39.791Z,9.23
2019-03-03T00:10:13.588Z,9.03
2019-03-03T00:12:44.471Z,9.15
2019-03-03T00:15:15.478Z,9.05
2019-03-03T00:17:46.631Z,9.40
2019-03-03T00:20:21.179Z,9.10
2019-03-03T00:22:51.883Z,8.60
2019-03-03T00:25:23.065Z,8.07
2019-03-03T00:27:54.026Z,8.23
2019-03-03T00:30:23.880Z,7.67
2019-03-03T00:32:54.244Z,8.03
2019-03-03T00:35:25.411Z,7.78
2019-03-03T00:38:13.950Z,7.95
2019-03-03T00:40:59.345Z,8.23
2019-03-03T00:43:48.722Z,7.58
2019-03-03T00:46:46.593Z,7.23
2019-03-03T00:49:44.793Z,7.17
2019-03-03T00:52:35.234Z,7.20
2019-03-03T00:55:14.602Z,7.25
2019-03-03T00:57:58.019Z,7.08
2019-03-03T01:00:56.195Z,7.33
2019-03-03T01:03:29.796Z,7.12
2019-03-03T01:06:21.593Z,7.62
2019-03-03T01:09:15.819Z,7.08
2019-03-03T01:11:55.862Z,7.28
2019-03-03T01:14:42.955Z,7.65
2019-03-03T01:17:30.599Z,7.85
2019-03-03T01:20:08.127Z,7.10
2019-03-03T01:22:59.910Z,7.08
2019-03-03T01:25:29.762Z,7.62
2019-03-03T01:27:59.594Z,7.23
2019-03-03T01:30:29.482Z,6.65
2019-03-03T01:32:59.424Z,6.43
2019-03-03T01:35:29.895Z,6.85
2019-03-03T01:37:59.730Z,6.97
2019-03-03T01:40:29.688Z,5.83
2019-03-03T01:42:59.648Z,6.30
2019-03-03T01:45:29.540Z,5.83
2019-03-03T01:47:59.449Z,5.83
2019-03-03T01:50:30.327Z,6.10
2019-03-03T01:53:01.373Z,5.72
2019-03-03T01:55:31.203Z,5.47
2019-03-03T01:58:01.088Z,5.60
2019-03-03T02:00:31.037Z,5.58
2019-03-03T02:03:01.000Z,5.50
2019-03-03T02:05:30.874Z,5.03
2019-03-03T02:08:01.028Z,5.37
2019-03-03T02:10:30.927Z,5.20
2019-03-03T02:13:00.785Z,5.03
2019-03-03T02:15:30.718Z,4.90
2019-03-03T02:18:00.636Z,4.75
2019-03-03T02:20:30.522Z,4.70
2019-03-03T02:23:00.446Z,4.45
2019-03-03T02:25:30.254Z,4.60
2019-03-03T02:28:00.282Z,4.80
2019-03-03T02:30:30.224Z,4.58
2019-03-03T02:33:00.114Z,4.37
2019-03-03T02:35:29.995Z,4.25
2019-03-03T02:37:59.811Z,4.80
2019-03-03T02:40:29.735Z,4.20
2019-03-03T02:43:00.630Z,4.37
2019-03-03T02:45:30.569Z,4.50
2019-03-03T02:48:00.617Z,4.30
2019-03-03T02:50:30.509Z,4.55
2019-03-03T02:53:00.424Z,4.33
2019-03-03T02:55:30.327Z,4.90
2019-03-03T02:58:00.182Z,4.53
2019-03-03T03:00:31.161Z,4.50
2019-03-03T03:03:02.036Z,4.40
2019-03-03T03:05:57.036Z,4.42
2019-03-03T03:08:32.810Z,4.50
2019-03-03T03:11:24.731Z,3.98
2019-03-03T03:14:19.442Z,4.33
2019-03-03T03:16:57.075Z,3.98
2019-03-03T03:19:52.023Z,4.28
2019-03-03T03:22:41.234Z,4.03
2019-03-03T03:25:30.294Z,4.17
2019-03-03T03:28:26.307Z,4.10
2019-03-03T03:31:11.724Z,4.30
2019-03-03T03:33:59.519Z,4.00
2019-03-03T03:36:54.383Z,4.12
2019-03-03T03:39:48.806Z,3.90
2019-03-03T03:42:36.356Z,4.17
2019-03-03T03:45:25.391Z,4.22
2019-03-03T03:48:23.753Z,3.80
2019-03-03T03:51:15.657Z,4.10
2019-03-03T03:54:07.335Z,3.70
2019-03-03T03:57:05.073Z,3.72
2019-03-03T03:59:54.824Z,3.92
2019-03-03T04:02:43.677Z,3.80
2019-03-03T04:05:34.762Z,4.33
2019-03-03T04:08:19.947Z,3.98
2019-03-03T04:10:59.104Z,4.37
2019-03-03T04:13:53.970Z,3.92
2019-03-03T04:16:45.924Z,4.28
2019-03-03T04:19:23.510Z,4.00
2019-03-03T04:22:21.157Z,4.35
2019-03-03T04:25:22.000Z,4.00
2019-03-03T04:28:19.743Z,4.00
2019-03-03T04:30:56.654Z,4.25
2019-03-03T04:33:51.737Z,4.65
2019-03-03T04:36:46.656Z,3.95
2019-03-03T04:39:32.142Z,4.12
2019-03-03T04:42:19.823Z,3.95
2019-03-03T04:44:57.249Z,4.10
2019-03-03T04:47:45.067Z,4.05
2019-03-03T04:50:33.887Z,4.35
2019-03-03T04:53:16.354Z,4.20
2019-03-03T04:56:03.382Z,4.57
2019-03-03T04:58:52.300Z,4.10
2019-03-03T05:01:41.175Z,4.47
2019-03-03T05:04:36.030Z,4.60
2019-03-03T05:07:36.476Z,4.83
2019-03-03T05:10:22.813Z,4.85
2019-03-03T05:13:00.719Z,5.03
2019-03-03T05:15:51.277Z,4.53
2019-03-03T05:18:38.769Z,4.70
2019-03-03T05:21:08.786Z,4.87
2019-03-03T05:23:38.781Z,4.55
2019-03-03T05:26:08.635Z,4.85
2019-03-03T05:28:38.585Z,5.03
2019-03-03T05:31:08.427Z,4.90
2019-03-03T05:33:38.229Z,4.85
2019-03-03T05:36:08.048Z,5.17
2019-03-03T05:38:37.861Z,4.85
2019-03-03T05:41:07.758Z,4.95
2019-03-03T05:43:38.747Z,5.22
2019-03-03T05:46:08.727Z,5.12
2019-03-03T05:48:38.640Z,5.08
2019-03-03T05:51:08.513Z,5.53
2019-03-03T05:53:38.414Z,5.17
2019-03-03T05:56:08.329Z,5.67
2019-03-03T05:58:38.146Z,5.10
2019-03-03T06:01:08.108Z,5.15
2019-03-03T06:03:37.926Z,5.30
2019-03-03T06:06:07.742Z,4.95
2019-03-03T06:08:37.600Z,5.50
2019-03-03T06:11:07.439Z,5.17
2019-03-03T06:13:37.230Z,5.78
2019-03-03T06:16:08.045Z,5.80
2019-03-03T06:18:37.914Z,5.55
2019-03-03T06:21:07.959Z,5.20
2019-03-03T06:23:37.743Z,5.20
2019-03-03T06:26:07.621Z,4.90
2019-03-03T06:28:37.479Z,5.17
2019-03-03T06:31:07.493Z,5.00
2019-03-03T06:33:37.449Z,5.70
2019-03-03T06:36:07.422Z,5.58
2019-03-03T06:38:37.246Z,5.60
2019-03-03T06:41:07.415Z,5.55
2019-03-03T06:43:37.291Z,5.53
2019-03-03T06:46:07.111Z,4.90
2019-03-03T06:48:45.099Z,5.45
2019-03-03T06:51:15.080Z,5.10
2019-03-03T06:53:44.962Z,5.45
2019-03-03T06:56:14.967Z,5.22
2019-03-03T06:58:44.981Z,5.40
2019-03-03T07:01:14.878Z,5.50
2019-03-03T07:03:44.947Z,5.22
2019-03-03T07:06:14.814Z,5.55
2019-03-03T07:08:44.719Z,5.23
2019-03-03T07:11:14.549Z,5.25
2019-03-03T07:13:44.417Z,5.50
2019-03-03T07:16:14.245Z,5.45
2019-03-03T07:18:44.185Z,5.30
2019-03-03T07:21:14.057Z,5.72
2019-03-03T07:23:45.663Z,5.00
2019-03-03T07:26:15.473Z,5.10
2019-03-03T07:28:45.283Z,5.15
2019-03-03T07:31:15.173Z,5.17
2019-03-03T07:33:49.164Z,4.70
2019-03-03T07:36:19.117Z,5.03
2019-03-03T07:38:48.993Z,4.97
2019-03-03T07:41:18.939Z,5.20
2019-03-03T07:43:48.850Z,5.20
2019-03-03T07:46:18.803Z,4.85
2019-03-03T07:48:48.616Z,5.00
2019-03-03T07:51:18.543Z,4.95
2019-03-03T07:53:48.444Z,5.10
2019-03-03T07:56:18.322Z,4.92
2019-03-03T07:58:48.312Z,5.08
2019-03-03T08:01:20.704Z,4.70
2019-03-03T08:03:50.635Z,4.90
2019-03-03T08:06:21.561Z,4.83
2019-03-03T08:08:51.475Z,4.70
2019-03-03T08:11:21.566Z,5.10
2019-03-03T08:13:51.414Z,4.62
2019-03-03T08:16:21.319Z,4.80
2019-03-03T08:18:51.234Z,4.72
2019-03-03T08:21:21.202Z,4.57
2019-03-03T08:23:51.291Z,4.85
2019-03-03T08:26:21.203Z,4.55
2019-03-03T08:28:51.150Z,5.08
2019-03-03T08:31:22.254Z,5.10
2019-03-03T08:33:52.307Z,5.07
2019-03-03T08:36:22.375Z,4.75
2019-03-03T08:38:53.275Z,4.90
2019-03-03T08:41:23.328Z,4.47
2019-03-03T08:44:00.541Z,4.78
2019-03-03T08:46:51.918Z,4.45
2019-03-03T08:49:43.843Z,5.10
2019-03-03T08:52:32.733Z,4.87
2019-03-03T08:55:23.331Z,5.10
2019-03-03T08:58:11.319Z,5.10
2019-03-03T09:01:03.137Z,4.58
2019-03-03T09:03:42.672Z,4.13
2019-03-03T09:06:31.587Z,4.40
2019-03-03T09:09:19.450Z,3.77
2019-03-03T09:12:14.280Z,4.00
2019-03-03T09:15:03.235Z,3.92
2019-03-03T09:17:45.387Z,4.50
2019-03-03T09:20:43.444Z,4.70
2019-03-03T09:23:35.459Z,4.97
2019-03-03T09:26:23.988Z,5.10
2019-03-03T09:29:10.177Z,4.53
2019-03-03T09:32:05.063Z,4.97
2019-03-03T09:35:03.070Z,4.70
2019-03-03T09:37:40.662Z,4.97
2019-03-03T09:40:20.313Z,4.65
2019-03-03T09:43:18.337Z,5.37
2019-03-03T09:46:03.035Z,4.78
2019-03-03T09:48:47.270Z,4.80
2019-03-03T09:51:35.022Z,4.30
2019-03-03T09:54:24.852Z,4.50
2019-03-03T09:57:19.977Z,4.50
2019-03-03T09:59:59.975Z,4.72
2019-03-03T10:02:36.602Z,4.20
2019-03-03T10:05:28.951Z,4.28
2019-03-03T10:08:16.612Z,4.45
2019-03-03T10:11:01.013Z,4.60
2019-03-03T10:13:42.697Z,4.12
2019-03-03T10:16:36.722Z,4.37
2019-03-03T10:19:22.193Z,4.37
2019-03-03T10:22:04.201Z,4.62
2019-03-03T10:24:44.946Z,4.87
2019-03-03T10:27:32.435Z,4.12
2019-03-03T10:30:27.258Z,4.45
2019-03-03T10:33:11.105Z,4.22
2019-03-03T10:36:01.877Z,4.78
2019-03-03T10:38:59.196Z,4.00
2019-03-03T10:41:47.088Z,4.22
2019-03-03T10:44:39.146Z,4.03
2019-03-03T10:47:34.055Z,4.10
2019-03-03T10:50:26.040Z,4.03
2019-03-03T10:53:01.141Z,4.30
2019-03-03T10:55:49.611Z,3.80
2019-03-03T10:58:41.675Z,4.20
2019-03-03T11:01:23.072Z,4.12
2019-03-03T11:04:11.429Z,3.98
2019-03-03T11:07:00.277Z,3.62
2019-03-03T11:09:47.984Z,3.83
2019-03-03T11:12:40.977Z,4.05
2019-03-03T11:15:37.521Z,4.00
2019-03-03T11:18:18.690Z,3.83
2019-03-03T11:21:13.490Z,3.70
2019-03-03T11:24:02.457Z,3.33
2019-03-03T11:27:00.366Z,3.55
2019-03-03T11:29:47.789Z,3.30
2019-03-03T11:32:27.278Z,3.60
2019-03-03T11:35:19.493Z,3.75
2019-03-03T11:37:55.555Z,3.80
2019-03-03T11:40:47.646Z,4.00
2019-03-03T11:43:39.409Z,3.50
2019-03-03T11:46:25.213Z,3.70
2019-03-03T11:49:06.948Z,3.67
2019-03-03T11:51:45.222Z,3.70
2019-03-03T11:54:31.782Z,3.77
2019-03-03T11:57:06.401Z,3.75
2019-03-03T11:59:53.773Z,3.40
2019-03-03T12:02:41.646Z,3.43
2019-03-03T12:05:30.676Z,3.62
2019-03-03T12:08:34.829Z,3.92
2019-03-03T12:11:26.798Z,3.50
2019-03-03T12:14:24.578Z,3.70
2019-03-03T12:17:13.661Z,3.33
2019-03-03T12:19:55.610Z,3.52
2019-03-03T12:22:41.398Z,3.67
2019-03-03T12:25:33.740Z,3.22
2019-03-03T12:28:23.240Z,3.50
2019-03-03T12:31:18.351Z,3.65
2019-03-03T12:34:08.320Z,3.80
2019-03-03T12:36:57.180Z,3.87
2019-03-03T12:39:45.149Z,3.70
2019-03-03T12:42:46.955Z,3.80
2019-03-03T12:45:25.454Z,3.50
2019-03-03T12:48:14.386Z,3.90
2019-03-03T12:51:06.080Z,3.87
2019-03-03T12:53:53.485Z,3.67
2019-03-03T12:56:48.285Z,3.22
2019-03-03T12:59:24.794Z,3.45
2019-03-03T13:02:18.021Z,3.50
2019-03-03T13:05:15.882Z,3.40
2019-03-03T13:08:15.458Z,3.70
2019-03-03T13:11:04.334Z,3.65
2019-03-03T13:13:59.071Z,3.50
2019-03-03T13:16:35.990Z,3.70
2019-03-03T13:19:25.280Z,3.35
2019-03-03T13:22:13.034Z,3.37
2019-03-03T13:25:01.898Z,3.40
2019-03-03T13:28:05.931Z,3.45
2019-03-03T13:31:00.747Z,3.27
2019-03-03T13:33:58.924Z,3.40
2019-03-03T13:36:46.629Z,3.22
2019-03-03T13:39:25.732Z,3.27
2019-03-03T13:42:03.921Z,3.40
2019-03-03T13:44:33.748Z,3.37
2019-03-03T13:47:03.616Z,3.20
2019-03-03T13:49:33.471Z,3.00
2019-03-03T13:52:03.422Z,3.55
2019-03-03T13:54:33.284Z,3.17
2019-03-03T13:57:03.302Z,3.12
2019-03-03T13:59:33.190Z,3.20
2019-03-03T14:02:03.192Z,2.98
2019-03-03T14:04:33.098Z,3.15
2019-03-03T14:07:03.791Z,2.87
2019-03-03T14:09:33.718Z,3.58
2019-03-03T14:12:03.625Z,3.00
2019-03-03T14:14:33.545Z,3.30
2019-03-03T14:17:03.385Z,2.80
2019-03-03T14:19:33.910Z,3.20
2019-03-03T14:22:03.796Z,3.08
2019-03-03T14:24:33.757Z,3.10
2019-03-03T14:27:10.255Z,3.60
2019-03-03T14:29:35.331Z,3.30
2019-03-03T14:32:05.171Z,3.45
2019-03-03T14:34:35.041Z,3.05
2019-03-03T14:37:04.955Z,3.03
2019-03-03T14:39:34.858Z,3.15
2019-03-03T14:42:04.771Z,3.17
2019-03-03T14:44:35.691Z,3.42
2019-03-03T14:47:05.566Z,3.52
2019-03-03T14:49:35.468Z,3.15
2019-03-03T14:52:05.316Z,3.37
2019-03-03T14:54:35.654Z,3.10
2019-03-03T14:57:05.486Z,3.20
2019-03-03T14:59:35.429Z,3.45
2019-03-03T15:02:05.367Z,2.95
2019-03-03T15:04:35.273Z,3.27
2019-03-03T15:07:05.228Z,2.85
2019-03-03T15:09:35.419Z,2.95
2019-03-03T15:12:05.294Z,3.17
2019-03-03T15:14:35.298Z,3.00
2019-03-03T15:17:05.210Z,2.70
2019-03-03T15:19:35.138Z,2.77
2019-03-03T15:22:05.004Z,2.95
2019-03-03T15:24:34.914Z,2.72
2019-03-03T15:27:04.736Z,2.90
2019-03-03T15:29:34.567Z,2.52
2019-03-03T15:32:04.485Z,2.67
2019-03-03T15:34:34.432Z,2.73
2019-03-03T15:37:06.059Z,2.27
2019-03-03T15:39:36.199Z,2.42
2019-03-03T15:42:06.137Z,2.60
2019-03-03T15:44:36.014Z,3.15
2019-03-03T15:47:05.979Z,2.47
2019-03-03T15:49:35.924Z,2.40
2019-03-03T15:52:06.021Z,2.65
2019-03-03T15:54:35.956Z,2.63
2019-03-03T15:57:05.855Z,2.70
2019-03-03T15:59:35.790Z,2.67
2019-03-03T16:02:06.549Z,2.98
2019-03-03T16:04:36.433Z,2.80
2019-03-03T16:07:06.347Z,2.80
2019-03-03T16:09:36.178Z,2.70
2019-03-03T16:12:06.072Z,3.33
2019-03-03T16:14:35.894Z,2.80
2019-03-03T16:17:05.834Z,3.07
2019-03-03T16:19:35.754Z,2.83
2019-03-03T16:22:05.730Z,2.90
2019-03-03T16:24:35.643Z,3.10
2019-03-03T16:27:08.039Z,3.30
2019-03-03T16:29:37.919Z,2.98
2019-03-03T16:32:07.751Z,3.00
2019-03-03T16:34:37.581Z,3.22
2019-03-03T16:37:07.404Z,3.72
2019-03-03T16:39:38.664Z,3.30
2019-03-03T16:42:08.605Z,3.60
2019-03-03T16:44:38.578Z,3.12
2019-03-03T16:47:08.453Z,3.27
2019-03-03T16:49:38.355Z,2.85
2019-03-03T16:52:08.270Z,3.27
2019-03-03T16:54:38.341Z,3.15
2019-03-03T16:57:08.320Z,3.17
2019-03-03T16:59:38.226Z,3.33
2019-03-03T17:02:08.153Z,2.95
2019-03-03T17:04:37.989Z,3.30
2019-03-03T17:07:07.870Z,3.80
2019-03-03T17:09:38.812Z,3.42
2019-03-03T17:12:08.650Z,3.10
2019-03-03T17:14:38.559Z,3.12
2019-03-03T17:17:08.460Z,3.27
2019-03-03T17:19:38.621Z,3.27
2019-03-03T17:22:08.542Z,3.37
2019-03-03T17:24:38.453Z,3.10
2019-03-03T17:27:08.451Z,3.30
2019-03-03T17:29:38.282Z,3.30
2019-03-03T17:32:08.117Z,3.20
2019-03-03T17:34:38.047Z,5.37
2019-03-03T17:37:08.128Z,3.30
2019-03-03T17:39:37.990Z,3.40
2019-03-03T17:42:07.832Z,3.37
2019-03-03T17:44:37.735Z,3.35
2019-03-03T17:47:07.732Z,3.65
2019-03-03T17:49:37.654Z,3.50
2019-03-03T17:52:07.623Z,3.72
2019-03-03T17:54:37.478Z,4.40
2019-03-03T17:57:07.315Z,3.70
2019-03-03T17:59:37.306Z,3.55
2019-03-03T18:02:07.544Z,3.42
2019-03-03T18:04:37.335Z,3.67
2019-03-03T18:07:07.199Z,3.37
2019-03-03T18:09:37.254Z,3.83
2019-03-03T18:12:07.126Z,3.83
2019-03-03T18:14:37.028Z,3.20
2019-03-03T18:17:07.078Z,3.58
2019-03-03T18:19:37.032Z,3.37
2019-03-03T18:22:06.901Z,5.78
2019-03-03T18:24:36.804Z,3.75
2019-03-03T18:27:06.683Z,4.53
2019-03-03T18:29:36.608Z,4.47
2019-03-03T18:32:13.044Z,4.53
2019-03-03T18:34:42.811Z,4.20
2019-03-03T18:37:13.262Z,3.77
2019-03-03T18:39:43.219Z,3.80
2019-03-03T18:42:13.157Z,3.47
2019-03-03T18:44:42.950Z,3.67
2019-03-03T18:47:12.918Z,3.80
2019-03-03T18:49:42.871Z,3.62
2019-03-03T18:52:12.857Z,3.70
2019-03-03T18:54:42.881Z,3.50
2019-03-03T18:57:12.682Z,3.83
2019-03-03T18:59:42.849Z,4.08
2019-03-03T19:02:16.870Z,3.83
2019-03-03T19:04:46.949Z,3.30
2019-03-03T19:07:16.875Z,3.83
2019-03-03T19:09:46.808Z,3.60
2019-03-03T19:12:16.729Z,3.60
2019-03-03T19:14:46.855Z,3.33
2019-03-03T19:17:16.798Z,3.40
2019-03-03T19:19:46.733Z,3.70
2019-03-03T19:22:16.695Z,3.60
2019-03-03T19:24:46.673Z,3.65
2019-03-03T19:27:16.667Z,3.40
2019-03-03T19:29:46.667Z,3.50
2019-03-03T19:32:16.605Z,4.23
2019-03-03T19:34:46.569Z,3.55
2019-03-03T19:37:16.704Z,3.93
2019-03-03T19:39:46.893Z,4.00
2019-03-03T19:42:16.847Z,3.42
2019-03-03T19:44:47.220Z,3.37
2019-03-03T19:47:17.264Z,4.03
2019-03-03T19:49:47.156Z,4.25
2019-03-03T19:52:17.117Z,3.60
2019-03-03T19:54:47.003Z,3.65
2019-03-03T19:57:16.941Z,4.22
2019-03-03T19:59:46.897Z,4.05
2019-03-03T20:02:16.786Z,4.37
2019-03-03T20:04:46.882Z,3.85
2019-03-03T20:07:16.815Z,4.30
2019-03-03T20:09:46.966Z,4.00
2019-03-03T20:12:16.952Z,4.25
2019-03-03T20:14:46.846Z,3.95
2019-03-03T20:17:16.686Z,3.92
2019-03-03T20:19:46.840Z,4.30
2019-03-03T20:22:16.748Z,4.53
2019-03-03T20:24:46.841Z,4.10
2019-03-03T20:27:16.853Z,4.00
2019-03-03T20:29:47.842Z,3.77
2019-03-03T20:32:18.032Z,4.40
2019-03-03T20:34:48.007Z,3.65
2019-03-03T20:37:18.274Z,3.72
2019-03-03T20:39:48.210Z,4.40
2019-03-03T20:42:18.202Z,4.80
2019-03-03T20:44:48.426Z,4.35
2019-03-03T20:47:18.542Z,3.98
2019-03-03T20:49:48.715Z,4.42
2019-03-03T20:52:18.845Z,4.13
2019-03-03T20:54:48.789Z,3.95
2019-03-03T20:57:18.674Z,5.70
2019-03-03T20:59:48.555Z,4.12
2019-03-03T21:02:18.463Z,4.70
2019-03-03T21:04:50.226Z,4.12
2019-03-03T21:07:20.163Z,4.30
2019-03-03T21:09:50.034Z,4.55
2019-03-03T21:12:19.973Z,4.53
2019-03-03T21:14:50.086Z,4.10
2019-03-03T21:17:20.001Z,4.37
2019-03-03T21:19:50.741Z,4.42
2019-03-03T21:22:20.658Z,4.28
2019-03-03T21:24:50.499Z,4.20
2019-03-03T21:27:20.381Z,4.28
2019-03-03T21:29:50.387Z,4.40
2019-03-03T21:32:20.517Z,3.80
2019-03-03T21:34:51.036Z,4.20
2019-03-03T21:37:21.411Z,3.92
2019-03-03T21:39:51.319Z,3.70
2019-03-03T21:42:21.181Z,4.45
2019-03-03T21:44:51.407Z,4.20
2019-03-03T21:47:21.405Z,4.05
2019-03-03T21:49:51.546Z,4.12
2019-03-03T21:52:21.708Z,3.67
2019-03-03T21:54:52.469Z,3.85
2019-03-03T21:57:22.509Z,3.75
2019-03-03T21:59:53.260Z,4.30
2019-03-03T22:02:23.305Z,4.57
2019-03-03T22:04:53.274Z,4.12
2019-03-03T22:07:23.196Z,3.80
2019-03-03T22:09:53.225Z,4.33
2019-03-03T22:12:23.125Z,4.85
2019-03-03T22:14:53.021Z,3.80
2019-03-03T22:17:22.887Z,3.77
2019-03-03T22:19:52.674Z,3.40
2019-03-03T22:22:22.683Z,4.33
2019-03-03T22:24:52.843Z,3.60
2019-03-03T22:27:22.777Z,3.80
2019-03-03T22:29:52.598Z,4.07
2019-03-03T22:32:22.657Z,3.62
2019-03-03T22:34:52.538Z,3.70
2019-03-03T22:37:22.439Z,3.50
2019-03-03T22:39:52.330Z,3.70
2019-03-03T22:42:22.210Z,3.22
2019-03-03T22:44:52.082Z,4.10
2019-03-03T22:47:22.219Z,3.40
2019-03-03T22:49:52.070Z,3.17
2019-03-03T22:52:21.894Z,3.58
2019-03-03T22:54:51.937Z,3.10
2019-03-03T22:57:21.835Z,3.33
2019-03-03T22:59:51.677Z,3.60
2019-03-03T23:02:22.730Z,3.60
2019-03-03T23:04:59.537Z,3.53
2019-03-03T23:07:34.661Z,4.30
2019-03-03T23:10:42.462Z,3.60
2019-03-03T23:13:59.382Z,3.62
2019-03-03T23:17:04.140Z,4.00
2019-03-03T23:20:27.256Z,3.80
2019-03-03T23:23:32.503Z,3.62
2019-03-03T23:26:02.334Z,3.47
2019-03-03T23:28:32.201Z,3.93
2019-03-03T23:31:01.991Z,3.42
2019-03-03T23:33:31.895Z,3.60
2019-03-03T23:36:01.818Z,3.87
2019-03-03T23:38:31.885Z,3.50
2019-03-03T23:41:01.710Z,3.90
2019-03-03T23:43:31.509Z,3.52
2019-03-03T23:46:01.294Z,3.67
2019-03-03T23:48:31.321Z,3.50
2019-03-03T23:51:02.223Z,3.92
2019-03-03T23:53:32.027Z,3.60
2019-03-03T23:56:02.205Z,3.35
2019-03-03T23:58:32.078Z,3.60
